Time;durP1;ratioP1;P1;durP2;ratioP2;P2;SDS_P1;SDS_P2;PMS_P1;PMS_P2;Temp;Humidity;BMP_temperature;BMP_pressure;BME280_temperature;BME280_humidity;BME280_pressure;Samples;Min_cycle;Max_cycle;Signal;HPM_P1;HPM_P2
2022/03/25 00:01:01;;;;;;;42.23;23.00;;;6.10;86.00;;;;;;5056080;28;20217;-83
2022/03/25 00:03:28;;;;;;;39.30;22.43;;;6.10;86.30;;;;;;5056436;28;20259;-83
2022/03/25 00:05:55;;;;;;;39.53;22.60;;;6.10;85.90;;;;;;5039471;28;20280;-84
2022/03/25 00:08:22;;;;;;;39.57;22.30;;;6.10;86.70;;;;;;5038454;28;20206;-83
2022/03/25 00:10:50;;;;;;;39.00;22.60;;;6.00;86.10;;;;;;5049271;28;20222;-83
2022/03/25 00:13:17;;;;;;;39.50;23.53;;;6.00;86.60;;;;;;5038263;28;20217;-85
2022/03/25 00:15:45;;;;;;;43.83;22.80;;;5.90;85.50;;;;;;5049259;28;20205;-83
2022/03/25 00:18:12;;;;;;;40.50;22.40;;;5.90;86.90;;;;;;5038699;28;20213;-83
2022/03/25 00:20:39;;;;;;;42.90;23.50;;;;;;;;;;5053039;28;20634;-84
2022/03/25 00:23:06;;;;;;;40.13;22.30;;;;;;;;;;5037379;28;20205;-82
2022/03/25 00:25:35;;;;;;;43.20;23.33;;;;;;;;;;5038993;28;20288;-83
2022/03/25 00:28:04;;;;;;;44.63;24.00;;;;;;;;;;5038991;28;20216;-83
2022/03/25 00:30:34;;;;;;;42.17;22.03;;;5.70;86.70;;;;;;5052952;28;20213;-84
2022/03/25 00:33:01;;;;;;;41.07;22.40;;;5.70;86.90;;;;;;5058419;28;20224;-83
2022/03/25 00:35:28;;;;;;;39.37;23.23;;;5.70;87.60;;;;;;5041922;28;20253;-82
2022/03/25 00:38:00;;;;;;;40.27;22.47;;;5.90;88.10;;;;;;5042103;28;20267;-83
2022/03/25 00:40:27;;;;;;;40.17;23.30;;;5.60;87.90;;;;;;5048879;28;20215;-83
2022/03/25 00:42:54;;;;;;;40.47;22.43;;;5.50;87.90;;;;;;5070775;28;20182;-82
2022/03/25 00:45:23;;;;;;;44.33;24.93;;;5.50;88.00;;;;;;5053404;28;20377;-83
2022/03/25 00:47:50;;;;;;;47.80;24.97;;;5.50;88.40;;;;;;5061405;28;20225;-83
2022/03/25 00:50:19;;;;;;;46.97;24.60;;;5.40;88.50;;;;;;5063420;28;20292;-83
2022/03/25 00:52:46;;;;;;;45.63;25.13;;;5.40;88.70;;;;;;5056262;28;20219;-83
2022/03/25 00:55:13;;;;;;;43.13;24.80;;;5.40;88.90;;;;;;5050565;28;20213;-84
2022/03/25 00:57:40;;;;;;;41.60;24.40;;;5.40;89.00;;;;;;5034460;28;20251;-83
2022/03/25 01:00:09;;;;;;;41.47;23.77;;;5.40;89.10;;;;;;5034676;28;20220;-84
2022/03/25 01:02:38;;;;;;;38.70;22.83;;;5.40;89.20;;;;;;5051163;28;20272;-83
2022/03/25 01:05:05;;;;;;;42.10;23.80;;;5.40;89.20;;;;;;5054566;28;20278;-83
2022/03/25 01:07:34;;;;;;;40.50;23.83;;;5.40;89.20;;;;;;5063975;28;20233;-83
2022/03/25 01:10:01;;;;;;;43.23;24.97;;;5.30;89.10;;;;;;5062562;28;20300;-83
2022/03/25 01:12:28;;;;;;;40.70;23.97;;;5.30;89.30;;;;;;5065838;28;20264;-83
2022/03/25 01:14:55;;;;;;;44.33;22.53;;;5.20;89.60;;;;;;5080065;28;20289;-83
2022/03/25 01:17:22;;;;;;;45.23;24.30;;;5.20;89.70;;;;;;5063254;28;20211;-83
2022/03/25 01:19:53;;;;;;;43.43;24.03;;;5.10;90.00;;;;;;5045410;28;20229;-84
2022/03/25 01:22:20;;;;;;;43.57;23.40;;;5.10;90.10;;;;;;5040757;28;20629;-83
2022/03/25 01:24:47;;;;;;;43.00;23.57;;;5.00;90.10;;;;;;5058964;28;20372;-83
2022/03/25 01:27:14;;;;;;;42.60;23.63;;;5.00;90.10;;;;;;5046514;28;20246;-83
2022/03/25 01:29:42;;;;;;;41.03;24.67;;;5.00;90.20;;;;;;5048198;28;20185;-83
2022/03/25 01:32:10;;;;;;;47.13;24.83;;;5.00;90.20;;;;;;5043119;28;20221;-83
2022/03/25 01:34:37;;;;;;;41.87;23.47;;;4.90;90.20;;;;;;5060819;28;20239;-84
2022/03/25 01:37:08;;;;;;;41.67;23.97;;;4.90;90.30;;;;;;5046797;28;20241;-84
2022/03/25 01:39:35;;;;;;;40.83;23.27;;;4.90;90.50;;;;;;5059337;28;20221;-83
2022/03/25 01:42:02;;;;;;;42.87;23.83;;;4.90;90.50;;;;;;5061697;28;20224;-83
2022/03/25 01:44:31;;;;;;;45.47;25.30;;;4.80;90.50;;;;;;5046120;28;20189;-83
2022/03/25 01:47:00;;;;;;;46.67;25.20;;;4.80;90.60;;;;;;5049257;28;20239;-83
2022/03/25 01:49:27;;;;;;;41.87;24.43;;;4.80;90.70;;;;;;5059401;28;20292;-83
2022/03/25 01:51:56;;;;;;;45.17;26.83;;;4.70;90.70;;;;;;5036110;28;20224;-82
2022/03/25 01:54:27;;;;;;;46.87;26.33;;;4.70;90.70;;;;;;5048477;28;20212;-83
2022/03/25 01:56:56;;;;;;;45.80;25.30;;;4.70;90.80;;;;;;5049497;28;20225;-84
2022/03/25 01:59:24;;;;;;;45.33;25.03;;;4.70;90.90;;;;;;5046782;28;20273;-82
2022/03/25 02:01:54;;;;;;;44.77;24.33;;;4.60;90.90;;;;;;5046795;28;20209;-82
2022/03/25 02:04:22;;;;;;;44.83;26.20;;;4.60;91.00;;;;;;5062250;28;20216;-83
2022/03/25 02:06:49;;;;;;;44.83;25.33;;;4.50;91.00;;;;;;5060682;28;20328;-83
2022/03/25 02:09:16;;;;;;;48.17;26.20;;;4.50;91.20;;;;;;5062835;28;20226;-84
2022/03/25 02:11:45;;;;;;;54.07;26.63;;;4.40;91.20;;;;;;5045585;28;20212;-84
2022/03/25 02:14:13;;;;;;;45.03;24.97;;;4.40;91.70;;;;;;5043945;28;20254;-83
2022/03/25 02:16:42;;;;;;;49.17;25.20;;;4.40;91.50;;;;;;5045187;28;20225;-81
2022/03/25 02:19:11;;;;;;;43.40;25.37;;;4.40;91.60;;;;;;5043856;28;20207;-83
2022/03/25 02:21:41;;;;;;;43.07;24.17;;;4.40;91.70;;;;;;5038972;28;20209;-83
2022/03/25 02:24:11;;;;;;;46.47;24.57;;;4.40;91.70;;;;;;5033626;28;20239;-83
2022/03/25 02:26:39;;;;;;;43.37;25.60;;;4.30;91.70;;;;;;5036837;28;20231;-82
2022/03/25 02:29:11;;;;;;;49.37;25.93;;;4.30;92.10;;;;;;5044874;28;20205;-82
2022/03/25 02:31:41;;;;;;;45.77;25.77;;;4.30;91.90;;;;;;5056397;28;20206;-83
2022/03/25 02:34:10;;;;;;;44.20;25.37;;;4.20;91.90;;;;;;5074186;28;20584;-82
2022/03/25 02:36:43;;;;;;;45.47;23.87;;;4.20;92.00;;;;;;5045765;28;20232;-83
2022/03/25 02:39:11;;;;;;;45.63;25.07;;;4.20;92.00;;;;;;5035998;28;20212;-82
2022/03/25 02:41:39;;;;;;;49.73;27.10;;;4.10;92.20;;;;;;5051824;28;20220;-82
2022/03/25 02:44:08;;;;;;;45.97;26.17;;;4.10;92.40;;;;;;5069974;28;20203;-82
2022/03/25 02:46:36;;;;;;;47.50;25.97;;;4.10;92.50;;;;;;5029989;28;20245;-82
2022/03/25 02:49:03;;;;;;;45.90;25.73;;;4.10;92.60;;;;;;5032665;28;20310;-83
2022/03/25 02:51:30;;;;;;;52.60;26.17;;;4.10;92.60;;;;;;5057118;28;20263;-83
2022/03/25 02:53:58;;;;;;;43.10;24.77;;;4.10;92.70;;;;;;5048367;28;20227;-83
2022/03/25 02:56:25;;;;;;;44.00;25.80;;;4.10;92.70;;;;;;5031036;28;20224;-83
2022/03/25 02:58:53;;;;;;;45.93;25.37;;;4.10;92.70;;;;;;5031051;28;20211;-83
2022/03/25 03:01:20;;;;;;;47.50;24.87;;;4.10;92.70;;;;;;5031563;28;20232;-81
2022/03/25 03:03:47;;;;;;;46.10;24.83;;;4.10;92.80;;;;;;5027856;28;20266;-83
2022/03/25 03:06:14;;;;;;;44.27;24.33;;;4.00;92.80;;;;;;5029820;28;20233;-83
2022/03/25 03:08:41;;;;;;;47.63;26.03;;;4.10;92.90;;;;;;5030284;28;20208;-83
2022/03/25 03:11:11;;;;;;;43.87;25.63;;;4.10;93.00;;;;;;5031133;28;20214;-83
2022/03/25 03:13:38;;;;;;;45.30;24.37;;;4.00;93.10;;;;;;5038705;28;20677;-83
2022/03/25 03:16:06;;;;;;;45.13;24.43;;;4.00;93.10;;;;;;5046981;28;20352;-83
2022/03/25 03:18:33;;;;;;;52.37;24.80;;;4.00;93.20;;;;;;5046813;28;20212;-83
2022/03/25 03:21:00;;;;;;;49.30;24.60;;;4.10;93.30;;;;;;5031021;28;20220;-83
2022/03/25 03:23:27;;;;;;;44.87;25.73;;;4.00;93.10;;;;;;5048555;28;20219;-83
2022/03/25 03:25:54;;;;;;;50.93;24.90;;;3.90;93.20;;;;;;5040930;28;20288;-83
2022/03/25 03:28:22;;;;;;;50.50;26.87;;;3.90;93.30;;;;;;5051430;28;20211;-83
2022/03/25 03:30:49;;;;;;;47.90;26.70;;;3.90;93.60;;;;;;5053463;28;20219;-83
2022/03/25 03:33:16;;;;;;;47.27;26.20;;;3.90;93.80;;;;;;5046613;28;20268;-83
2022/03/25 03:35:43;;;;;;;49.60;25.97;;;3.90;93.90;;;;;;5037836;28;20247;-83
2022/03/25 03:38:10;;;;;;;46.63;25.67;;;3.90;94.00;;;;;;5033073;28;20213;-83
2022/03/25 03:40:38;;;;;;;46.23;24.97;;;3.90;94.10;;;;;;5031683;28;20235;-83
2022/03/25 03:43:05;;;;;;;52.03;27.67;;;3.90;94.10;;;;;;5032398;28;20313;-83
2022/03/25 03:45:33;;;;;;;47.60;25.07;;;3.90;94.10;;;;;;5051474;28;20820;-83
2022/03/25 03:48:00;;;;;;;49.90;27.37;;;3.80;94.00;;;;;;5036178;28;20192;-82
2022/03/25 03:50:27;;;;;;;50.20;27.47;;;3.80;94.10;;;;;;5038203;28;20199;-83
2022/03/25 03:52:54;;;;;;;46.17;25.23;;;3.80;94.20;;;;;;5047881;28;20185;-83
2022/03/25 03:55:21;;;;;;;51.17;26.57;;;3.70;94.20;;;;;;5054447;28;20252;-83
2022/03/25 03:58:07;;;;;;;46.57;26.57;;;3.70;94.30;;;;;;5054050;28;20122;-82
2022/03/25 04:00:37;;;;;;;55.97;28.00;;;3.60;94.40;;;;;;5054019;28;20208;-82
2022/03/25 04:03:06;;;;;;;53.30;28.57;;;3.60;94.60;;;;;;5052420;28;20216;-83
2022/03/25 04:05:32;;;;;;;51.60;27.60;;;3.60;94.70;;;;;;5051413;28;20247;-85
2022/03/25 04:07:59;;;;;;;56.20;29.97;;;3.60;94.80;;;;;;5051087;28;20194;-83
2022/03/25 04:10:26;;;;;;;55.87;29.93;;;3.60;95.00;;;;;;5051496;28;20257;-83
2022/03/25 04:12:53;;;;;;;54.13;29.00;;;3.60;95.10;;;;;;5049553;28;20228;-83
2022/03/25 04:15:20;;;;;;;60.13;31.50;;;3.60;95.20;;;;;;5042971;28;20197;-83
2022/03/25 04:17:48;;;;;;;65.90;32.47;;;3.50;95.30;;;;;;5031767;28;20233;-82
2022/03/25 04:20:16;;;;;;;59.23;29.47;;;3.50;95.50;;;;;;5036285;28;20449;-83
2022/03/25 04:22:45;;;;;;;57.90;30.17;;;3.60;95.60;;;;;;5035300;28;20229;-83
2022/03/25 04:25:13;;;;;;;65.90;31.17;;;3.50;95.70;;;;;;5041299;28;20222;-84
2022/03/25 04:27:47;;;;;;;63.07;30.30;;;3.30;95.80;;;;;;5038967;28;20250;-83
2022/03/25 04:30:18;;;;;;;60.60;30.73;;;3.50;96.00;;;;;;5047641;28;20203;-83
2022/03/25 04:32:45;;;;;;;57.30;30.03;;;3.50;96.10;;;;;;5038150;28;20562;-83
2022/03/25 04:35:13;;;;;;;60.27;30.67;;;3.50;96.10;;;;;;5038835;28;20278;-83
2022/03/25 04:37:41;;;;;;;58.60;31.00;;;3.40;96.50;;;;;;5036265;28;20281;-84
2022/03/25 04:40:09;;;;;;;58.10;30.13;;;3.40;96.20;;;;;;5055263;28;20234;-83
2022/03/25 04:42:36;;;;;;;62.43;31.17;;;3.40;96.40;;;;;;5041484;28;20210;-83
2022/03/25 04:45:03;;;;;;;59.17;29.37;;;3.30;96.50;;;;;;5057180;28;20216;-83
2022/03/25 04:47:30;;;;;;;61.23;29.27;;;3.40;96.70;;;;;;5033534;28;20232;-84
2022/03/25 04:49:57;;;;;;;55.53;30.67;;;3.40;96.80;;;;;;5038205;28;20214;-84
2022/03/25 04:52:27;;;;;;;62.37;32.03;;;3.40;96.90;;;;;;5043805;28;20951;-84
2022/03/25 04:54:53;;;;;;;65.20;31.93;;;3.40;96.90;;;;;;5054091;28;20236;-84
2022/03/25 04:57:21;;;;;;;58.77;29.67;;;3.40;96.90;;;;;;5038904;28;20769;-84
2022/03/25 04:59:48;;;;;;;62.57;32.07;;;3.30;97.00;;;;;;5034626;28;20209;-84
2022/03/25 05:02:15;;;;;;;64.17;30.87;;;3.30;97.20;;;;;;5032937;28;20292;-84
2022/03/25 05:04:42;;;;;;;59.97;29.90;;;3.30;97.30;;;;;;5032227;28;20253;-83
2022/03/25 05:07:14;;;;;;;66.30;30.80;;;3.40;97.70;;;;;;5032914;28;20233;-83
2022/03/25 05:09:43;;;;;;;61.50;32.63;;;3.30;97.40;;;;;;5034927;28;20235;-84
2022/03/25 05:12:12;;;;;;;59.83;31.80;;;3.30;97.50;;;;;;5032277;28;20273;-83
2022/03/25 05:14:40;;;;;;;64.07;30.73;;;3.30;97.50;;;;;;5032972;28;20218;-83
2022/03/25 05:17:07;;;;;;;65.90;31.40;;;3.20;97.60;;;;;;5035552;28;20224;-82
2022/03/25 05:19:34;;;;;;;59.57;30.97;;;3.20;97.70;;;;;;5032951;28;20211;-83
2022/03/25 05:22:01;;;;;;;63.70;31.27;;;3.20;97.70;;;;;;5035542;28;20223;-83
2022/03/25 05:24:28;;;;;;;73.23;34.20;;;3.20;97.80;;;;;;5033503;28;20278;-83
2022/03/25 05:26:56;;;;;;;67.17;33.47;;;3.20;97.90;;;;;;5032562;28;20239;-84
2022/03/25 05:29:24;;;;;;;66.40;32.47;;;3.20;98.10;;;;;;5035207;28;20207;-86
2022/03/25 05:31:51;;;;;;;72.60;34.00;;;3.20;98.10;;;;;;5035459;28;20208;-86
2022/03/25 05:34:18;;;;;;;71.10;34.10;;;3.50;98.10;;;;;;5047481;28;20230;-82
2022/03/25 05:36:45;;;;;;;64.37;32.57;;;3.20;98.40;;;;;;5032206;28;20255;-82
2022/03/25 05:39:14;;;;;;;67.00;33.03;;;3.30;98.50;;;;;;5034386;28;20382;-82
2022/03/25 05:41:42;;;;;;;66.23;32.70;;;3.30;98.60;;;;;;5050524;28;20243;-82
2022/03/25 05:44:11;;;;;;;66.07;33.70;;;3.40;98.80;;;;;;5031106;28;20221;-82
2022/03/25 05:46:40;;;;;;;57.80;31.07;;;3.40;98.80;;;;;;5046344;28;20236;-82
2022/03/25 05:49:07;;;;;;;69.13;34.17;;;3.40;98.80;;;;;;5039257;28;20349;-82
2022/03/25 05:51:34;;;;;;;65.33;33.13;;;3.40;99.00;;;;;;5029171;28;20234;-82
2022/03/25 05:54:01;;;;;;;64.87;33.70;;;3.50;99.10;;;;;;5029709;28;20225;-82
2022/03/25 05:56:28;;;;;;;61.47;31.30;;;3.50;99.30;;;;;;5028645;28;20285;-82
2022/03/25 05:58:55;;;;;;;65.27;32.63;;;3.60;99.50;;;;;;5029102;28;20681;-82
2022/03/25 06:01:24;;;;;;;67.30;33.20;;;3.70;99.70;;;;;;5025012;28;20271;-83
2022/03/25 06:03:52;;;;;;;68.13;33.07;;;4.00;99.90;;;;;;5029860;28;20271;-83
2022/03/25 06:06:19;;;;;;;61.30;31.77;;;4.30;99.90;;;;;;5028621;28;20236;-83
2022/03/25 06:08:46;;;;;;;63.67;31.83;;;4.40;99.90;;;;;;5031480;28;20215;-83
2022/03/25 06:11:12;;;;;;;56.93;30.20;;;4.80;99.90;;;;;;5029518;28;20212;-83
2022/03/25 06:13:40;;;;;;;51.77;28.63;;;5.20;99.90;;;;;;5029606;28;20236;-83
2022/03/25 06:16:07;;;;;;;51.40;28.83;;;5.60;99.90;;;;;;5030304;28;20230;-84
2022/03/25 06:18:35;;;;;;;;;;;6.10;99.90;;;;;;5030229;28;20023;-82
2022/03/25 06:21:02;;;;;;;;;;;6.60;99.90;;;;;;5030683;28;19929;-82
2022/03/25 06:23:29;;;;;;;;;;;7.30;99.90;;;;;;5028294;28;19956;-84
2022/03/25 06:25:56;;;;;;;;;;;8.00;99.90;;;;;;5029693;28;19928;-81
2022/03/25 06:28:23;;;;;;;;;;;8.60;99.90;;;;;;5022700;28;19921;-84
2022/03/25 06:30:49;;;;;;;;;;;9.20;99.90;;;;;;5027336;28;19983;-82
2022/03/25 06:33:16;;;;;;;;;;;9.80;99.90;;;;;;5029456;28;19975;-84
2022/03/25 06:35:44;;;;;;;;;;;10.90;99.90;;;;;;5023668;28;19929;-84
2022/03/25 06:38:11;;;;;;;;;;;10.90;99.90;;;;;;5023217;28;20051;-84
2022/03/25 06:40:38;;;;;;;;;;;11.40;99.90;;;;;;5020590;28;19925;-85
2022/03/25 06:43:06;;;;;;;43.77;27.07;;;12.00;99.70;;;;;;5024183;28;20101;-84
2022/03/25 06:45:33;;;;;;;37.70;24.87;;;12.50;99.30;;;;;;5029636;28;20690;-84
2022/03/25 06:48:00;;;;;;;42.30;28.57;;;13.10;99.40;;;;;;5025759;28;20232;-84
2022/03/25 06:50:27;;;;;;;39.53;27.40;;;13.60;99.00;;;;;;5030533;28;20198;-85
2022/03/25 06:52:57;;;;;;;41.03;26.63;;;14.20;98.40;;;;;;5044165;28;20209;-86
2022/03/25 06:55:25;;;;;;;37.97;26.27;;;14.70;98.00;;;;;;5029595;28;20213;-83
2022/03/25 06:57:53;;;;;;;41.83;26.53;;;15.30;97.80;;;;;;5046735;28;20341;-81
2022/03/25 07:00:24;;;;;;;39.37;27.63;;;15.80;97.50;;;;;;5022874;28;20258;-81
2022/03/25 07:02:52;;;;;;;39.87;26.57;;;16.30;96.80;;;;;;5035591;28;20208;-85
2022/03/25 07:05:19;;;;;;;40.17;27.00;;;16.80;96.10;;;;;;5051731;28;20198;-87
2022/03/25 07:07:47;;;;;;;38.50;25.97;;;17.20;95.70;;;;;;5066285;28;20219;-85
2022/03/25 07:10:19;;;;;;;;;;;17.50;95.40;;;;;;5052563;28;20267;-86
2022/03/25 07:12:46;;;;;;;;;;;17.80;94.90;;;;;;5047470;28;19929;-88
2022/03/25 07:15:13;;;;;;;;;;;18.20;94.60;;;;;;5052108;28;19948;-86
2022/03/25 07:17:41;;;;;;;;;;;18.70;94.20;;;;;;5067748;28;19935;-86
2022/03/25 07:20:14;;;;;;;44.10;29.20;;;18.50;93.30;;;;;;5036409;28;20274;-87
2022/03/25 07:22:41;;;;;;;41.97;31.03;;;18.00;92.60;;;;;;5036383;28;20242;-85
2022/03/25 07:25:08;;;;;;;44.37;29.77;;;18.20;92.70;;;;;;5033538;28;20304;-82
2022/03/25 07:27:37;;;;;;;41.77;30.60;;;18.20;92.70;;;;;;5039026;28;20241;-83
2022/03/25 07:30:06;;;;;;;45.50;31.83;;;19.50;92.70;;;;;;5033923;28;20344;-87
2022/03/25 07:32:34;;;;;;;48.07;32.13;;;20.10;92.10;;;;;;5053198;28;20213;-89
2022/03/25 07:35:03;;;;;;;47.93;31.13;;;20.70;91.50;;;;;;5057943;28;20217;-86
2022/03/25 07:37:31;;;;;;;46.27;31.53;;;21.20;91.20;;;;;;5055584;28;20750;-86
2022/03/25 07:39:58;;;;;;;44.53;31.77;;;21.70;90.60;;;;;;5040857;28;20209;-87
2022/03/25 07:42:25;;;;;;;48.77;32.67;;;22.10;89.70;;;;;;5036857;28;21345;-87
2022/03/25 07:44:53;;;;;;;;;;;22.40;87.50;;;;;;5028518;28;20086;-87
2022/03/25 07:47:20;;;;;;;49.93;32.90;;;22.70;87.40;;;;;;5038173;28;20249;-86
2022/03/25 07:49:47;;;;;;;48.87;32.70;;;22.80;86.00;;;;;;5043205;28;20359;-87
2022/03/25 07:52:15;;;;;;;48.73;32.37;;;23.20;85.00;;;;;;5047532;28;20226;-86
2022/03/25 07:54:42;;;;;;;43.80;32.57;;;23.50;84.00;;;;;;5047919;28;20202;-87
2022/03/25 07:57:15;;;;;;;50.23;33.03;;;23.80;83.80;;;;;;5043494;28;20231;-87
2022/03/25 07:59:43;;;;;;;47.50;33.43;;;23.70;82.00;;;;;;5038968;28;20212;-87
2022/03/25 08:02:12;;;;;;;47.20;32.53;;;24.40;81.00;;;;;;5046044;28;20490;-87
2022/03/25 08:04:39;;;;;;;41.90;31.50;;;24.60;79.80;;;;;;5039618;28;20204;-86
2022/03/25 08:07:06;;;;;;;47.70;33.27;;;24.80;79.50;;;;;;5039359;28;20227;-87
2022/03/25 08:09:34;;;;;;;44.70;33.03;;;25.00;78.50;;;;;;5047334;28;20215;-85
2022/03/25 08:12:02;;;;;;;46.70;32.83;;;25.20;77.80;;;;;;5039368;28;20212;-85
2022/03/25 08:14:32;;;;;;;44.93;32.33;;;25.40;76.50;;;;;;5037846;28;20186;-86
2022/03/25 08:17:00;;;;;;;46.87;32.87;;;25.50;76.30;;;;;;5067744;28;20214;-85
2022/03/25 08:19:30;;;;;;;48.83;32.77;;;25.50;74.80;;;;;;5069016;28;20225;-85
2022/03/25 08:21:57;;;;;;;41.27;31.30;;;25.50;74.10;;;;;;5065532;28;20220;-85
2022/03/25 08:29:55;;;;;;;43.73;30.00;;;24.90;73.60;;;;;;5050054;28;20198;-86
2022/03/25 08:32:22;;;;;;;43.17;31.37;;;25.00;73.70;;;;;;5060112;28;20266;-85
2022/03/25 08:34:51;;;;;;;43.33;31.43;;;25.10;73.00;;;;;;5053015;28;20268;-88
2022/03/25 08:37:22;;;;;;;48.20;30.70;;;25.10;72.60;;;;;;5067405;28;20458;-84
2022/03/25 08:39:49;;;;;;;47.23;28.47;;;24.80;71.40;;;;;;5070060;28;20226;-86
2022/03/25 08:42:16;;;;;;;42.13;29.20;;;24.50;71.40;;;;;;5048682;28;20259;-86
2022/03/25 08:44:44;;;;;;;46.67;29.90;;;24.30;68.40;;;;;;5053499;28;20183;-86
2022/03/25 08:47:11;;;;;;;42.13;30.00;;;23.30;68.80;;;;;;5054305;28;20238;-86
2022/03/25 08:49:39;;;;;;;44.33;29.93;;;23.20;70.50;;;;;;5053341;28;20199;-84
2022/03/25 08:52:07;;;;;;;42.27;28.30;;;23.70;72.10;;;;;;5064327;28;20216;-86
2022/03/25 08:54:34;;;;;;;40.23;25.77;;;23.80;70.10;;;;;;5047249;28;20204;-86
2022/03/25 08:57:02;;;;;;;42.13;25.30;;;23.50;66.10;;;;;;5047236;28;20225;-83
2022/03/25 08:59:30;;;;;;;37.73;25.87;;;23.00;66.50;;;;;;5044923;28;20197;-84
2022/03/25 09:01:59;;;;;;;39.77;25.97;;;22.00;66.40;;;;;;5046052;28;20238;-86
2022/03/25 09:04:27;;;;;;;40.10;25.73;;;21.90;67.60;;;;;;5038467;28;20211;-85
2022/03/25 09:06:56;;;;;;;46.37;27.33;;;20.90;68.00;;;;;;5039998;28;20226;-86
2022/03/25 09:09:37;;;;;;;42.27;28.03;;;20.50;68.50;;;;;;5028850;28;20217;-85
2022/03/25 09:12:11;;;;;;;40.10;26.37;;;20.00;67.80;;;;;;5034983;28;20246;-88
2022/03/25 09:14:39;;;;;;;45.17;26.27;;;19.80;69.40;;;;;;5062021;28;20216;-86
2022/03/25 09:17:06;;;;;;;43.17;27.90;;;19.90;70.40;;;;;;5032017;28;20718;-86
2022/03/25 09:19:33;;;;;;;44.27;28.60;;;20.00;70.00;;;;;;5031168;28;20205;-86
2022/03/25 09:22:00;;;;;;;52.00;28.97;;;20.10;70.90;;;;;;5028948;28;20327;-86
2022/03/25 09:24:27;;;;;;;41.80;27.23;;;20.40;72.20;;;;;;5068712;28;20982;-85
2022/03/25 09:26:55;;;;;;;43.37;27.77;;;20.70;71.50;;;;;;5068409;28;20235;-85
2022/03/25 09:29:23;;;;;;;39.67;26.70;;;20.60;68.20;;;;;;5038259;28;20207;-85
2022/03/25 09:31:50;;;;;;;38.80;25.60;;;20.20;69.00;;;;;;5053954;28;20635;-84
2022/03/25 09:37:02;;;;;;;41.40;25.93;;;19.40;68.10;;;;;;5052250;28;20230;-87
2022/03/25 09:39:29;;;;;;;38.43;23.90;;;19.00;68.00;;;;;;5020532;28;20646;-85
2022/03/25 09:42:00;;;;;;;39.70;24.80;;;18.80;68.60;;;;;;5035779;28;20229;-86
2022/03/25 09:44:27;;;;;;;33.77;22.40;;;18.50;68.60;;;;;;5045793;28;20199;-83
2022/03/25 09:46:55;;;;;;;37.43;19.93;;;18.30;68.80;;;;;;5031973;28;20225;-84
2022/03/25 09:49:22;;;;;;;34.30;18.43;;;18.20;68.60;;;;;;5033312;28;20214;-85
2022/03/25 09:51:49;;;;;;;25.33;14.20;;;18.00;69.10;;;;;;5049529;28;20232;-85
2022/03/25 09:54:18;;;;;;;33.93;15.73;;;18.00;69.20;;;;;;5049515;28;20217;-84
2022/03/25 09:56:45;;;;;;;38.47;20.93;;;18.10;69.00;;;;;;5035714;28;20270;-86
2022/03/25 10:02:45;;;;;;;40.00;17.47;;;;;;;;;;5010498;28;20271;-84
2022/03/25 10:05:16;;;;;;;35.63;17.00;;;18.10;68.20;;;;;;5013830;28;20210;-85
2022/03/25 10:08:04;;;;;;;37.00;18.73;;;18.20;68.60;;;;;;5050609;28;20236;-85
2022/03/25 10:11:26;;;;;;;30.87;18.37;;;18.30;67.50;;;;;;5051200;28;20298;-85
2022/03/25 10:14:29;;;;;;;29.77;15.20;;;19.30;69.50;;;;;;5005303;28;20237;-86
2022/03/25 10:17:00;;;;;;;31.87;17.27;;;18.70;68.20;;;;;;5026678;28;20240;-85
2022/03/25 10:19:27;;;;;;;30.80;17.30;;;18.80;68.40;;;;;;5033901;28;20217;-86
2022/03/25 10:21:55;;;;;;;29.23;15.47;;;19.00;68.20;;;;;;5030264;28;21046;-87
2022/03/25 10:24:41;;;;;;;30.47;18.20;;;19.10;67.30;;;;;;5047418;28;20225;-85
2022/03/25 10:27:09;;;;;;;33.50;17.93;;;19.10;66.70;;;;;;5046673;28;20263;-85
2022/03/25 10:29:36;;;;;;;36.70;19.10;;;19.00;66.90;;;;;;5043539;28;20229;-87
2022/03/25 10:32:07;;;;;;;35.67;17.37;;;19.00;66.50;;;;;;5029556;28;20204;-84
2022/03/25 10:34:34;;;;;;;31.20;17.10;;;19.00;66.60;;;;;;5025729;28;20203;-85
2022/03/25 10:37:04;;;;;;;25.23;16.03;;;18.90;65.90;;;;;;5015250;28;20233;-85
2022/03/25 10:39:32;;;;;;;22.83;12.07;;;18.90;66.50;;;;;;5025933;28;20241;-86
2022/03/25 10:42:02;;;;;;;31.27;16.30;;;18.80;65.40;;;;;;5025422;28;20248;-85
2022/03/25 10:44:36;;;;;;;33.23;15.80;;;18.80;65.40;;;;;;5023611;28;20215;-85
2022/03/25 10:47:23;;;;;;;27.37;14.80;;;18.70;66.30;;;;;;5024874;28;20228;-84
2022/03/25 10:49:52;;;;;;;30.10;14.80;;;18.80;66.10;;;;;;5029215;28;20399;-85
2022/03/25 10:52:26;;;;;;;27.07;15.90;;;18.60;65.60;;;;;;5022934;28;20190;-85
2022/03/25 10:55:14;;;;;;;33.47;16.50;;;18.70;66.20;;;;;;5021933;28;20207;-87
2022/03/25 10:57:49;;;;;;;27.47;16.57;;;18.60;66.50;;;;;;5024936;28;20229;-86
2022/03/25 11:00:17;;;;;;;26.73;15.00;;;18.70;66.90;;;;;;5027239;28;20209;-86
2022/03/25 11:02:45;;;;;;;29.00;15.40;;;18.60;66.20;;;;;;5028362;28;20222;-86
2022/03/25 11:05:13;;;;;;;30.90;18.13;;;18.70;65.90;;;;;;5031427;28;20205;-86
2022/03/25 11:07:45;;;;;;;27.30;15.40;;;18.50;66.90;;;;;;5028729;28;20597;-86
2022/03/25 11:10:18;;;;;;;32.27;17.83;;;18.70;66.90;;;;;;5031615;28;20255;-89
2022/03/25 11:12:55;;;;;;;30.27;17.53;;;18.80;67.10;;;;;;5033375;28;20264;-85
2022/03/25 11:15:23;;;;;;;34.67;17.87;;;18.80;67.00;;;;;;5039343;28;20217;-87
2022/03/25 11:18:01;;;;;;;34.03;16.40;;;;;;;;;;5062727;28;20230;-87
2022/03/25 11:20:40;;;;;;;29.83;18.20;;;18.90;67.00;;;;;;5054149;28;20201;-87
2022/03/25 11:23:13;;;;;;;25.27;15.70;;;19.20;67.80;;;;;;5034090;28;20341;-86
2022/03/25 11:25:44;;;;;;;29.17;16.23;;;19.40;67.70;;;;;;5034393;28;20218;-86
2022/03/25 11:28:19;;;;;;;35.70;17.27;;;19.40;67.70;;;;;;5034995;28;20214;-86
2022/03/25 11:30:58;;;;;;;31.50;17.30;;;19.50;67.00;;;;;;5053560;28;20236;-86
2022/03/25 11:34:11;;;;;;;24.37;12.77;;;19.50;65.50;;;;;;5039623;28;20197;-87
2022/03/25 11:36:41;;;;;;;24.30;14.07;;;19.60;66.00;;;;;;5038539;28;20241;-85
2022/03/25 11:39:24;;;;;;;23.17;11.10;;;19.40;66.10;;;;;;5035718;28;20222;-85
2022/03/25 11:41:54;;;;;;;27.27;15.27;;;19.30;66.60;;;;;;5034332;28;20307;-85
2022/03/25 11:44:25;;;;;;;22.60;13.80;;;19.00;66.40;;;;;;5029050;28;20742;-86
2022/03/25 11:47:20;;;;;;;28.90;15.83;;;18.70;66.70;;;;;;5031857;28;20237;-85
2022/03/25 11:49:48;;;;;;;29.67;16.67;;;18.60;67.30;;;;;;5035426;28;20202;-85
2022/03/25 11:52:33;;;;;;;26.83;15.10;;;18.60;68.70;;;;;;5036943;28;20208;-87
2022/03/25 11:55:01;;;;;;;21.43;11.87;;;18.90;68.10;;;;;;5055849;28;20214;-85
2022/03/25 11:57:30;;;;;;;27.07;16.10;;;19.20;67.60;;;;;;5052687;28;20233;-85
2022/03/25 11:59:59;;;;;;;25.50;14.93;;;19.20;67.80;;;;;;5035836;28;20218;-85
2022/03/25 12:02:30;;;;;;;31.43;17.57;;;19.20;67.20;;;;;;5040523;28;20276;-85
2022/03/25 12:05:26;;;;;;;23.03;12.17;;;19.10;67.20;;;;;;5058444;28;20214;-85
2022/03/25 12:08:28;;;;;;;27.83;12.23;;;19.10;67.20;;;;;;5033239;28;20383;-86
2022/03/25 12:10:59;;;;;;;16.17;9.07;;;19.20;65.70;;;;;;5033936;28;20206;-85
2022/03/25 12:14:06;;;;;;;25.00;13.37;;;19.30;65.20;;;;;;5036119;28;20304;-85
2022/03/25 12:17:04;;;;;;;22.90;13.70;;;19.40;65.50;;;;;;5024467;28;20590;-85
2022/03/25 12:19:51;;;;;;;26.07;14.10;;;19.50;66.20;;;;;;5002497;28;20315;-85
2022/03/25 12:22:33;;;;;;;27.27;14.53;;;19.90;66.50;;;;;;5016795;28;20226;-85
2022/03/25 12:25:20;;;;;;;27.27;15.13;;;20.00;66.10;;;;;;5040916;28;20224;-86
2022/03/25 12:27:47;;;;;;;25.87;15.43;;;20.00;65.70;;;;;;5016975;28;20717;-85
2022/03/25 12:30:15;;;;;;;29.33;14.33;;;19.90;64.00;;;;;;5024460;28;20214;-86
2022/03/25 12:32:42;;;;;;;28.43;17.03;;;19.60;63.80;;;;;;5023461;28;20693;-85
2022/03/25 12:35:13;;;;;;;26.27;16.07;;;19.40;64.90;;;;;;5017516;28;20343;-87
2022/03/25 12:38:27;;;;;;;28.67;15.00;;;19.40;65.70;;;;;;5024123;28;20237;-86
2022/03/25 12:40:56;;;;;;;26.10;15.07;;;19.50;66.20;;;;;;5005649;28;20230;-87
2022/03/25 12:43:31;;;;;;;22.77;11.63;;;19.70;65.90;;;;;;5025041;28;20220;-87
2022/03/25 12:46:03;;;;;;;32.70;16.57;;;19.80;64.80;;;;;;5015097;28;20313;-87
2022/03/25 12:48:48;;;;;;;23.63;14.30;;;19.80;65.30;;;;;;5019169;28;20201;-87
2022/03/25 12:51:20;;;;;;;31.30;14.67;;;;;;;;;;5021679;28;20228;-88
2022/03/25 12:53:56;;;;;;;27.47;14.87;;;;;;;;;;5021017;28;20626;-88
2022/03/25 12:56:55;;;;;;;29.73;16.57;;;19.10;64.90;;;;;;5020275;28;20812;-87
2022/03/25 12:59:29;;;;;;;27.63;16.67;;;19.10;65.40;;;;;;5018796;28;20225;-86
2022/03/25 13:01:56;;;;;;;24.53;12.23;;;19.20;66.10;;;;;;5023998;28;20285;-87
2022/03/25 13:04:28;;;;;;;26.23;14.40;;;19.40;65.60;;;;;;5021211;28;20226;-87